• Join FlightAware (Why Join?)
  • Login
  • US Flag 
08:39PM EDT


 

Airport Tracker/Info


-or-


 

Live Flight TrackerFlight Track Log ✈ SWA149 ✈ 01-May-2013 ✈ KEWR - KMDW

Flight Track Log - Related Links

Times and Time Zones

All times are in EDT time to prevent confusion due to time zone crossing. See the SWA149 flight status page for this flight to view local times or setup timezone preferences in your user account.

Time Position Orientation Groundspeed Altitude Reporting Facility
EDT Latitude Longitude Course Direction KTS MPH feet Rate Location/Type
12:21PM 40.7167 -74.1333 270° West 178 205 2,300  Level New York TRACON
12:22PM 40.7500 -74.1833 311° West 245 282 5,500 3,420 Climbing New York TRACON
12:23PM 40.7500 -74.3000 270° West 299 344 9,200 3,540 Climbing New York TRACON
12:24PM 40.7667 -74.4000 282° West 316 364 12,600 2,700 Climbing New York TRACON
12:26PM 40.8108 -74.6369 284° West 385 443 17,000 2,400 Climbing New York Center
12:27PM 40.8667 -74.9697 270° West  Level FlightAware Approximate
12:27PM 40.8356 -74.7672 284° West 380 437 19,600  Level New York Center
12:28PM 40.8642 -74.9061 285° West 385 443 22,600 2,820 Climbing New York Center
12:29PM 40.8947 -75.0453 286° West 390 449 25,400 2,520 Climbing New York Center
12:30PM 40.9081 -75.1942 277° West 397 457 27,800 2,280 Climbing New York Center
12:31PM 40.8769 -75.3514 255° West 417 480 30,000 1,920 Climbing New York Center
12:32PM 40.8414 -75.5136 254° West 440 506 31,700 1,680 Climbing New York Center
12:33PM 40.8092 -75.6431 252° West 458 527 33,400 1,140 Climbing New York Center
12:34PM 40.7661 -75.8208 252° West 464 534 34,000 300 Climbing New York Center
12:35PM 40.7278 -75.9822 253° West 469 540 34,000  Level New York Center
12:36PM 40.6872 -76.1461 252° West 469 540 34,000 240 Level New York Center
12:37PM 40.6736 -76.3064 264° West 469 540 34,500 1,200 Climbing New York Center
12:38PM 40.6972 -76.4672 281° West 447 514 36,400 1,800 Climbing New York Center
12:39PM 40.7167 -76.6250 279° West 447 514 38,100 1,380 Climbing New York Center
12:40PM 40.7358 -76.7828 279° West 447 514 39,300 900 Climbing New York Center
12:41PM 40.7586 -76.9436 281° West 447 514 40,000 300 Climbing New York Center
12:42PM 40.7772 -77.1072 279° West 452 520 40,000  Level New York Center
12:44PM 40.8144 -77.3758 280° West 442 509 40,000  Level Cleveland Center
12:45PM 40.8358 -77.5558 279° West 453 521 40,000  Level Cleveland Center
12:46PM 40.8525 -77.7144 278° West 453 521 40,000  Level Cleveland Center
12:47PM 40.8711 -77.8756 279° West 448 516 40,000  Level Cleveland Center
12:48PM 40.8889 -78.0178 279° West 443 510 40,000  Level Cleveland Center
12:49PM 40.9092 -78.1764 280° West 443 510 40,000  Level Cleveland Center
12:50PM 40.9269 -78.3350 278° West 443 510 40,000  Level Cleveland Center
12:51PM 40.9425 -78.4939 277° West 443 510 40,000  Level Cleveland Center
12:52PM 40.9639 -78.6528 280° West 443 510 40,000  Level Cleveland Center
12:53PM 40.9792 -78.8119 277° West 443 510 40,000  Level Cleveland Center
12:54PM 40.9961 -78.9739 278° West 443 510 40,000  Level Cleveland Center
12:55PM 41.0128 -79.1356 278° West 443 510 40,000  Level Cleveland Center
12:56PM 41.0294 -79.2978 278° West 443 510 40,000  Level Cleveland Center
12:57PM 41.0456 -79.4597 278° West 443 510 40,000  Level Cleveland Center
12:58PM 41.0617 -79.6192 278° West 443 510 40,000  Level Cleveland Center
12:59PM 41.0797 -79.7844 278° West 448 516 40,000  Level Cleveland Center
01:00PM 41.0953 -79.9439 277° West 448 516 40,000  Level Cleveland Center
01:01PM 41.1106 -80.1064 277° West 443 510 40,000  Level Cleveland Center
01:02PM 41.1258 -80.2689 277° West 448 516 40,000  Level Cleveland Center
01:03PM 41.1406 -80.4481 276° West 448 516 40,000  Level Cleveland Center
01:04PM 41.1575 -80.6108 278° West 448 516 40,000  Level Cleveland Center
01:05PM 41.1697 -80.7733 276° West 448 516 40,000  Level Cleveland Center
01:06PM 41.1861 -80.9364 278° West 443 510 40,000  Level Cleveland Center
01:07PM 41.1981 -81.0825 276° West 443 510 40,000  Level Cleveland Center
01:08PM 41.2117 -81.2483 276° West 443 510 40,000  Level Cleveland Center
01:09PM 41.2314 -81.4253 278° West 443 510 40,000  Level Cleveland Center
01:10PM 41.2467 -81.5911 277° West 443 510 40,000  Level Cleveland Center
01:11PM 41.2578 -81.7542 275° West 443 510 40,000  Level Cleveland Center
01:12PM 41.2706 -81.9175 276° West 443 510 40,000  Level Cleveland Center
01:13PM 41.2850 -82.0836 277° West 443 510 40,000  Level Cleveland Center
01:14PM 41.2953 -82.2525 275° West 457 526 40,000  Level Cleveland Center
01:15PM 41.3075 -82.4019 276° West 457 526 40,000  Level Cleveland Center
01:16PM 41.3175 -82.5625 275° West 457 526 40,000  Level Cleveland Center
01:17PM 41.3289 -82.7289 275° West 452 520 40,000  Level Cleveland Center
01:18PM 41.3425 -82.8981 276° West 452 520 40,000  Level Cleveland Center
01:19PM 41.3556 -83.0617 276° West 457 526 40,000  Level Cleveland Center
01:20PM 41.3642 -83.2447 274° West 457 526 40,000  Level Cleveland Center
01:21PM 41.3767 -83.4114 276° West 463 533 40,000  Level Cleveland Center
01:22PM 41.3869 -83.5778 275° West 463 533 40,000  Level Cleveland Center
01:23PM 41.3992 -83.7472 276° West 463 533 40,000  Level Cleveland Center
01:24PM 41.4092 -83.9139 275° West 463 533 40,000 -360 Level Cleveland Center
01:25PM 41.4186 -84.0806 274° West 463 533 39,300 -1,140 Descending Cleveland Center
01:26PM 41.4281 -84.2500 274° West 463 533 37,800 -2,280 Descending Cleveland Center
01:27PM 41.4439 -84.4006 278° West 463 533 34,800 -2,580 Descending Cleveland Center
01:29PM 41.4617 -84.7503 274° West 472 543 30,000 -1,560 Descending Chicago Center
01:30PM 41.4714 -84.9267 274° West 476 548 30,000 -360 Level Chicago Center
01:31PM 41.4825 -85.1381 274° West 475 547 29,300 -1,620 Descending Chicago Center
01:32PM 41.4903 -85.3094 274° West 463 533 26,700 -1,800 Descending Chicago Center
01:33PM 41.4967 -85.4811 273° West 455 524 25,700 -1,620 Descending Chicago Center
01:34PM 41.5064 -85.6436 275° West 439 505 23,400 -2,280 Descending Chicago Center
01:35PM 41.5142 -85.7953 274° West 416 479 21,000 -2,340 Descending Chicago Center
01:36PM 41.5206 -85.9414 273° West 395 455 18,600 -2,220 Descending Chicago Center
01:37PM 41.5250 -86.0797 273° West 379 436 16,500 -2,280 Descending Chicago Center
01:38PM 41.5239 -86.2150 269° West 366 421 14,000 -2,580 Descending Chicago Center
01:39PM 41.5225 -86.3703 269° West 352 405 11,300 -1,860 Descending Chicago Center
01:40PM 41.5222 -86.4972 270° West 345 397 10,300 -660 Descending Chicago Center
01:41PM 41.5211 -86.6206 269° West 331 381 10,000 -180 Descending Chicago Center
01:42PM 41.5211 -86.7386 270° West 335 386 10,000  Level Chicago Center
01:43PM 41.5189 -86.8814 269° West 320 368 10,000 -780 Level Chicago Center
01:44PM 41.5172 -86.9861 269° West 285 328 8,500 -1,440 Descending Chicago Center
01:45PM 41.5278 -87.0886 278° West 281 323 7,100 -1,320 Descending Chicago Center
01:46PM 41.5333 -87.1500 277° West 285 328 6,500 -1,020 Descending Chicago TRACON
01:47PM 41.5667 -87.2500 294° West 283 326 5,600 -960 Descending Chicago TRACON
01:48PM 41.5833 -87.3500 283° West 279 321 4,600 -960 Descending Chicago TRACON
01:49PM 41.6083 -87.4022 303° West 279 321 4,100 -420 Descending Chicago Center
01:50PM 41.6364 -87.4942 292° West 275 316 4,000 -60 Descending Chicago Center
01:51PM 41.6644 -87.5792 294° West 264 304 4,000 -120 Level Chicago Center
01:52PM 41.7214 -87.6292 327° Northwest 257 296 3,800 -720 Descending Chicago Center
01:52PM 41.7500 -87.6500 331° Northwest 237 273 3,000 -1,140 Descending Chicago TRACON
01:53PM 41.8000 -87.6833 334° Northwest 198 228 2,200 -960 Descending Chicago TRACON
01:54PM 41.8167 -87.7167 304° West 140 161 1,100 -1,140 Descending Chicago TRACON
01:57PM 41.7833 -87.7500 334° Northwest  Level FlightAware Approximate